• Join FlightAware (Why Join?)
  • Login
  • US Flag 
Rudolph Flight #1: Arrived! 
07:31PM EST


 

Airport Tracker/Info


-or-


 

Live Flight TrackerFlight Track Log ✈ MAS2742 ✈ 18-Aug-2014 ✈ WMKK / KUL - WBGB / BTU

Flight Track Log - Related Links

Times and Time Zones

All times are in EDT time to prevent confusion due to time zone crossing. See the MAS2742 flight status page for this flight to view local times or setup timezone preferences in your user account.

Time Position Orientation Groundspeed Altitude Reporting Facility
EDT Latitude Longitude Course Direction KTS MPH feet Rate Location/Type
11:02PM 3.1836 102.4545 78° East 441 507 24,500  Level FlightAware ADS-B (WMSA / SZB)
11:04PM 3.2405 102.7249 78° East 466 536 27,700 1,320 Climbing FlightAware ADS-B (WMSA / SZB)
11:05PM 3.2697 102.8686 79° East 477 549 29,000 720 Climbing FlightAware ADS-B (WMSA / SZB)
11:06PM 3.2858 102.9483 78° East 474 545 29,000  Level FlightAware ADS-B (WMSA / SZB)
11:07PM 3.3068 103.0506 79° East 471 542 29,000  Level FlightAware ADS-B (WMSA / SZB)
11:09PM 3.3040 103.2596 91° East  Level Estimated
11:10PM 3.3024 103.3756 91° East  Level Estimated
11:11PM 3.3008 103.4917 91° East  Level Estimated
11:12PM 3.2992 103.6078 91° East  Level Estimated
11:13PM 3.2975 103.7239 91° East  Level Estimated
11:14PM 3.2959 103.8399 91° East  Level Estimated
11:15PM 3.2942 103.9560 91° East  Level Estimated
11:16PM 3.2926 104.0721 91° East  Level Estimated
11:17PM 3.2909 104.1882 91° East  Level Estimated
11:18PM 3.2895 104.2850 91° East  Level Estimated
11:19PM 3.2880 104.3817 91° East  Level Estimated
11:20PM 3.2866 104.4785 91° East  Level Estimated
11:21PM 3.2852 104.5753 91° East  Level Estimated
11:22PM 3.2837 104.6721 91° East  Level Estimated
11:23PM 3.2823 104.7689 91° East  Level Estimated
11:24PM 3.2808 104.8656 91° East  Level Estimated
11:25PM 3.2793 104.9624 91° East  Level Estimated
11:26PM 3.2778 105.0592 91° East  Level Estimated
11:27PM 3.2763 105.1560 91° East  Level Estimated
11:28PM 3.2748 105.2527 91° East  Level Estimated
11:29PM 3.2733 105.3495 91° East  Level Estimated
11:30PM 3.2718 105.4463 91° East  Level Estimated
11:31PM 3.2703 105.5431 91° East  Level Estimated
11:32PM 3.2687 105.6399 91° East  Level Estimated
11:33PM 3.2671 105.7366 91° East  Level Estimated
11:34PM 3.2656 105.8334 91° East  Level Estimated
11:35PM 3.2640 105.9302 91° East  Level Estimated
11:36PM 3.2624 106.0270 91° East  Level Estimated
11:37PM 3.2608 106.1237 91° East  Level Estimated
11:38PM 3.2592 106.2205 91° East  Level Estimated
11:39PM 3.2576 106.3173 91° East  Level Estimated
11:40PM 3.2560 106.4141 91° East  Level Estimated
11:41PM 3.2544 106.5108 91° East  Level Estimated
11:42PM 3.2527 106.6076 91° East  Level Estimated
11:43PM 3.2511 106.7044 91° East  Level Estimated
11:44PM 3.2494 106.8012 91° East  Level Estimated
11:45PM 3.2478 106.8979 91° East  Level Estimated
11:46PM 3.2461 106.9947 91° East  Level Estimated
11:47PM 3.2444 107.0915 91° East  Level Estimated
11:48PM 3.2427 107.1882 91° East  Level Estimated
11:49PM 3.2410 107.2850 91° East  Level Estimated
11:50PM 3.2393 107.3818 91° East  Level Estimated
11:51PM 3.2376 107.4786 91° East  Level Estimated
11:52PM 3.2359 107.5753 91° East  Level Estimated
11:53PM 3.2341 107.6721 91° East  Level Estimated
11:54PM 3.2324 107.7689 91° East  Level Estimated
11:55PM 3.2306 107.8656 91° East  Level Estimated
11:56PM 3.2289 107.9624 91° East  Level Estimated
11:57PM 3.2271 108.0592 91° East  Level Estimated
11:58PM 3.2253 108.1560 91° East  Level Estimated
11:59PM 3.2235 108.2527 91° East  Level Estimated
12:00AM 3.2217 108.3495 91° East  Level Estimated
12:01AM 3.2199 108.4463 91° East  Level Estimated
12:02AM 3.2181 108.5430 91° East  Level Estimated
12:03AM 3.2162 108.6398 91° East  Level Estimated
12:04AM 3.2144 108.7365 91° East  Level Estimated
12:05AM 3.2125 108.8333 91° East  Level Estimated
12:06AM 3.2107 108.9301 91° East  Level Estimated
12:07AM 3.2088 109.0268 91° East  Level Estimated
12:08AM 3.2069 109.1236 91° East  Level Estimated
12:09AM 3.2051 109.2204 91° East  Level Estimated
12:10AM 3.2032 109.3171 91° East  Level Estimated
12:11AM 3.2013 109.4139 91° East  Level Estimated
12:12AM 3.1994 109.5107 91° East  Level Estimated
12:13AM 3.1974 109.6074 91° East  Level Estimated
12:14AM 3.1955 109.7042 91° East  Level Estimated
12:15AM 3.1936 109.8010 91° East  Level Estimated
12:16AM 3.1916 109.8977 91° East  Level Estimated
12:17AM 3.1897 109.9945 91° East  Level Estimated
12:18AM 3.1877 110.0912 91° East  Level Estimated
12:19AM 3.1857 110.1880 91° East  Level Estimated
12:20AM 3.1837 110.2848 91° East  Level Estimated
12:21AM 3.1817 110.3815 91° East  Level Estimated
12:22AM 3.1797 110.4783 91° East  Level Estimated
12:23AM 3.1777 110.5751 91° East  Level Estimated
12:24AM 3.1757 110.6718 91° East  Level Estimated
12:25AM 3.1737 110.7686 91° East  Level Estimated
12:26AM 3.1716 110.8653 91° East  Level Estimated
12:27AM 3.1696 110.9621 91° East  Level Estimated
12:28AM 3.1675 111.0588 91° East  Level Estimated
12:29AM 3.1654 111.1556 91° East  Level Estimated
12:30AM 3.1634 111.2524 91° East  Level Estimated
12:31AM 3.1613 111.3491 91° East  Level Estimated
12:32AM 3.1592 111.4459 91° East  Level Estimated
12:33AM 3.1571 111.5426 91° East  Level Estimated
12:34AM 3.1550 111.6394 91° East  Level Estimated
12:35AM 3.1528 111.7361 91° East  Level Estimated
12:36AM 3.1507 111.8329 91° East  Level Estimated
12:37AM 3.1486 111.9296 91° East  Level Estimated
12:38AM 3.1464 112.0264 91° East  Level Estimated
12:39AM 3.1443 112.1232 91° East  Level Estimated
12:40AM 3.1421 112.2199 91° East  Level Estimated
12:41AM 3.1399 112.3167 91° East  Level Estimated
12:42AM 3.1377 112.4134 91° East  Level Estimated
12:43AM 3.1356 112.5102 91° East  Level Estimated
12:44AM 3.1334 112.6069 91° East  Level Estimated
12:45AM 3.1312 112.7037 91° East  Level Estimated
12:46AM 3.1289 112.8004 91° East  Level Estimated
12:47AM 3.1267 112.8972 91° East  Level Estimated
12:48AM 3.1245 112.9939 91° East  Level Estimated
12:49AM 3.1239 113.0205 91° East  Level Estimated
12:50AM 3.1239 113.0205 North  Level Estimated